createdAt,value
2023-01-19T00:01:10.985Z,1.30
2023-01-19T00:03:16.476Z,1.60
2023-01-19T00:05:21.396Z,2.10
2023-01-19T00:07:26.271Z,2.10
2023-01-19T00:09:33.573Z,2.53
2023-01-19T00:11:38.480Z,1.80
2023-01-19T00:13:49.794Z,1.52
2023-01-19T00:15:57.354Z,0.88
2023-01-19T00:18:02.200Z,0.90
2023-01-19T00:20:08.167Z,0.93
2023-01-19T00:22:13.268Z,0.60
2023-01-19T00:24:18.499Z,1.15
2023-01-19T00:26:24.988Z,1.00
2023-01-19T00:28:29.758Z,0.80
2023-01-19T00:30:35.443Z,0.85
2023-01-19T00:32:42.743Z,0.85
2023-01-19T00:34:49.630Z,1.17
2023-01-19T00:36:54.568Z,1.15
2023-01-19T00:38:59.791Z,0.98
2023-01-19T00:41:05.635Z,1.13
2023-01-19T00:43:07.773Z,0.77
2023-01-19T00:45:18.735Z,1.17
2023-01-19T00:47:23.615Z,1.45
2023-01-19T00:49:33.333Z,1.10
2023-01-19T00:51:38.451Z,1.15
2023-01-19T00:53:43.221Z,1.45
2023-01-19T00:55:48.097Z,1.05
2023-01-19T00:57:52.900Z,1.38
2023-01-19T00:59:57.614Z,1.20
2023-01-19T01:02:03.042Z,1.35
2023-01-19T01:04:08.829Z,1.50
2023-01-19T01:06:16.287Z,1.67
2023-01-19T01:08:20.980Z,1.40
2023-01-19T01:10:31.338Z,1.15
2023-01-19T01:12:36.261Z,0.98
2023-01-19T01:14:41.510Z,1.15
2023-01-19T01:16:46.227Z,1.10
2023-01-19T01:18:51.055Z,1.10
2023-01-19T01:20:56.403Z,1.17
2023-01-19T01:23:04.700Z,1.17
2023-01-19T01:25:10.974Z,1.80
2023-01-19T01:27:16.224Z,1.02
2023-01-19T01:29:21.141Z,1.33
2023-01-19T01:31:26.030Z,1.13
2023-01-19T01:33:40.472Z,1.05
2023-01-19T01:35:46.176Z,1.38
2023-01-19T01:37:51.042Z,0.95
2023-01-19T01:39:58.437Z,1.02
2023-01-19T01:42:03.402Z,1.02
2023-01-19T01:44:38.032Z,0.95
2023-01-19T01:46:42.974Z,0.80
2023-01-19T01:48:51.436Z,0.73
2023-01-19T01:51:10.430Z,0.85
2023-01-19T01:53:17.740Z,0.98
2023-01-19T01:55:26.544Z,1.15
2023-01-19T01:57:35.072Z,1.30
2023-01-19T01:59:44.254Z,1.20
2023-01-19T02:02:02.104Z,1.35
2023-01-19T02:04:07.508Z,1.50
2023-01-19T02:06:13.513Z,1.67
2023-01-19T02:08:34.230Z,1.88
2023-01-19T02:10:55.324Z,1.17
2023-01-19T02:13:12.992Z,1.70
2023-01-19T02:15:19.749Z,1.88
2023-01-19T02:17:24.920Z,1.25
2023-01-19T02:19:33.165Z,1.35
2023-01-19T02:21:43.121Z,1.20
2023-01-19T02:23:52.064Z,1.40
2023-01-19T02:25:57.040Z,1.25
2023-01-19T02:28:03.569Z,0.93
2023-01-19T02:30:10.302Z,1.67
2023-01-19T02:32:15.385Z,0.82
2023-01-19T02:34:22.038Z,0.90
2023-01-19T02:36:31.382Z,1.48
2023-01-19T02:38:36.535Z,0.85
2023-01-19T02:40:45.740Z,1.00
2023-01-19T02:42:53.266Z,1.30
2023-01-19T02:45:01.325Z,0.90
2023-01-19T02:47:07.420Z,1.08
2023-01-19T02:49:14.860Z,0.90
2023-01-19T02:51:21.652Z,0.80
2023-01-19T02:54:07.729Z,0.80
2023-01-19T02:56:44.709Z,1.20
2023-01-19T02:58:59.389Z,1.27
2023-01-19T03:01:12.956Z,1.45
2023-01-19T03:03:29.615Z,1.00
2023-01-19T03:05:43.659Z,1.05
2023-01-19T03:07:54.309Z,1.30
2023-01-19T03:10:07.842Z,1.08
2023-01-19T03:12:20.956Z,1.13
2023-01-19T03:14:32.183Z,0.95
2023-01-19T03:16:41.804Z,1.25
2023-01-19T03:18:49.342Z,0.82
2023-01-19T03:20:56.762Z,0.93
2023-01-19T03:23:05.071Z,1.23
2023-01-19T03:25:11.283Z,1.25
2023-01-19T03:27:20.050Z,1.10
2023-01-19T03:29:29.106Z,1.20
2023-01-19T03:31:35.707Z,1.30
2023-01-19T03:33:42.230Z,1.65
2023-01-19T03:35:51.791Z,2.08
2023-01-19T03:37:59.060Z,1.98
2023-01-19T03:40:04.104Z,1.90
2023-01-19T03:42:11.963Z,2.25
2023-01-19T03:44:17.045Z,2.08
2023-01-19T03:46:25.662Z,1.55
2023-01-19T03:48:31.251Z,2.08
2023-01-19T03:50:36.074Z,2.10
2023-01-19T03:52:40.963Z,1.73
2023-01-19T03:54:46.454Z,1.90
2023-01-19T03:56:52.630Z,1.60
2023-01-19T03:58:57.647Z,2.30
2023-01-19T04:01:04.392Z,1.83
2023-01-19T04:03:16.026Z,1.67
2023-01-19T04:05:21.237Z,1.98
2023-01-19T04:07:25.953Z,2.08
2023-01-19T04:09:31.290Z,1.83
2023-01-19T04:11:36.126Z,2.92
2023-01-19T04:13:40.954Z,1.73
2023-01-19T04:15:47.902Z,2.47
2023-01-19T04:17:52.822Z,2.05
2023-01-19T04:20:00.943Z,2.22
2023-01-19T04:22:05.947Z,2.35
2023-01-19T04:24:11.967Z,2.17
2023-01-19T04:26:16.766Z,2.30
2023-01-19T04:28:21.589Z,3.05
2023-01-19T04:30:26.375Z,2.50
2023-01-19T04:32:31.284Z,1.88
2023-01-19T04:34:36.174Z,2.72
2023-01-19T04:36:45.475Z,3.78
2023-01-19T04:38:50.245Z,2.50
2023-01-19T04:40:55.705Z,2.67
2023-01-19T04:43:01.873Z,2.50
2023-01-19T04:45:07.646Z,2.95
2023-01-19T04:47:12.603Z,3.58
2023-01-19T04:49:17.786Z,2.60
2023-01-19T04:51:22.799Z,2.58
2023-01-19T04:53:32.871Z,3.47
2023-01-19T04:55:38.011Z,2.58
2023-01-19T04:57:43.112Z,2.72
2023-01-19T04:59:47.864Z,1.98
2023-01-19T05:01:53.197Z,2.38
2023-01-19T05:03:57.915Z,2.58
2023-01-19T05:06:02.849Z,2.95
2023-01-19T05:08:08.292Z,2.55
2023-01-19T05:10:19.745Z,1.80
2023-01-19T05:12:24.558Z,2.40
2023-01-19T05:14:29.386Z,2.88
2023-01-19T05:16:34.704Z,3.30
2023-01-19T05:18:39.485Z,2.70
2023-01-19T05:20:44.315Z,2.92
2023-01-19T05:22:52.531Z,2.35
2023-01-19T05:24:59.846Z,2.67
2023-01-19T05:27:07.569Z,2.92
2023-01-19T05:29:14.993Z,3.17
2023-01-19T05:31:19.923Z,2.50
2023-01-19T05:33:24.970Z,3.25
2023-01-19T05:35:35.607Z,3.03
2023-01-19T05:37:41.108Z,2.30
2023-01-19T05:39:46.226Z,2.83
2023-01-19T05:41:51.131Z,3.08
2023-01-19T05:44:01.683Z,2.53
2023-01-19T05:46:07.726Z,2.25
2023-01-19T05:48:12.485Z,3.38
2023-01-19T05:50:20.321Z,1.88
2023-01-19T05:52:25.190Z,2.53
2023-01-19T05:54:29.988Z,2.75
2023-01-19T05:56:35.696Z,2.72
2023-01-19T05:58:41.567Z,3.38
2023-01-19T06:00:52.326Z,2.90
2023-01-19T06:02:57.134Z,2.47
2023-01-19T06:05:02.701Z,2.63
2023-01-19T06:07:08.430Z,2.92
2023-01-19T06:09:13.636Z,2.95
2023-01-19T06:11:18.377Z,2.70
2023-01-19T06:13:23.297Z,2.38
2023-01-19T06:15:27.935Z,2.83
2023-01-19T06:17:35.944Z,2.30
2023-01-19T06:19:40.907Z,2.35
2023-01-19T06:21:49.869Z,2.55
2023-01-19T06:23:54.575Z,2.75
2023-01-19T06:26:02.832Z,2.58
2023-01-19T06:28:08.074Z,2.17
2023-01-19T06:30:14.874Z,2.50
2023-01-19T06:32:19.960Z,2.30
2023-01-19T06:34:29.260Z,2.20
2023-01-19T06:36:34.111Z,1.83
2023-01-19T06:38:39.124Z,2.58
2023-01-19T06:40:44.093Z,1.92
2023-01-19T06:42:48.920Z,2.05
2023-01-19T06:44:53.721Z,2.20
2023-01-19T06:47:14.553Z,2.35
2023-01-19T06:49:20.894Z,2.28
2023-01-19T06:51:31.458Z,2.30
2023-01-19T06:53:36.520Z,1.85
2023-01-19T06:55:42.785Z,1.80
2023-01-19T06:57:47.830Z,2.70
2023-01-19T06:59:53.171Z,2.58
2023-01-19T07:01:59.871Z,3.10
2023-01-19T07:04:23.747Z,2.47
2023-01-19T07:06:31.613Z,3.47
2023-01-19T07:08:36.959Z,3.00
2023-01-19T07:11:24.892Z,3.28
2023-01-19T07:13:06.712Z,2.72
2023-01-19T07:15:12.414Z,3.33
2023-01-19T07:17:17.530Z,3.08
2023-01-19T07:19:22.347Z,2.47
2023-01-19T07:21:29.248Z,2.88
2023-01-19T07:23:38.323Z,2.60
2023-01-19T07:25:43.232Z,2.40
2023-01-19T07:27:47.896Z,1.95
2023-01-19T07:29:52.527Z,2.72
2023-01-19T07:31:57.309Z,2.40
2023-01-19T07:34:02.622Z,2.25
2023-01-19T07:36:08.765Z,3.65
2023-01-19T07:38:13.744Z,4.03
2023-01-19T07:40:23.331Z,2.67
2023-01-19T07:42:31.590Z,3.13
2023-01-19T07:44:36.343Z,2.33
2023-01-19T07:46:41.705Z,3.05
2023-01-19T07:48:47.861Z,2.22
2023-01-19T07:50:52.589Z,2.63
2023-01-19T07:52:57.611Z,2.50
2023-01-19T07:55:02.537Z,2.88
2023-01-19T07:57:09.984Z,2.53
2023-01-19T07:59:14.905Z,2.13
2023-01-19T08:01:19.850Z,1.85
2023-01-19T08:05:35.723Z,3.03
2023-01-19T08:07:40.400Z,2.53
2023-01-19T08:09:45.234Z,2.88
2023-01-19T08:11:50.123Z,1.92
2023-01-19T08:13:57.462Z,2.50
2023-01-19T08:16:02.866Z,2.65
2023-01-19T08:18:12.122Z,2.38
2023-01-19T08:20:17.516Z,2.55
2023-01-19T08:22:22.337Z,2.60
2023-01-19T08:24:32.095Z,3.15
2023-01-19T08:26:39.187Z,2.65
2023-01-19T08:28:43.942Z,2.50
2023-01-19T08:30:54.425Z,2.10
2023-01-19T08:33:04.568Z,2.50
2023-01-19T08:35:10.802Z,2.50
2023-01-19T08:37:15.574Z,2.85
2023-01-19T08:39:20.365Z,2.50
2023-01-19T08:41:25.080Z,2.88
2023-01-19T08:43:30.059Z,2.63
2023-01-19T08:45:35.521Z,2.55
2023-01-19T08:47:43.185Z,2.33
2023-01-19T08:49:48.034Z,2.35
2023-01-19T08:51:52.868Z,2.55
2023-01-19T08:53:57.793Z,3.20
2023-01-19T08:56:05.972Z,3.38
2023-01-19T08:58:11.939Z,2.65
2023-01-19T09:00:21.001Z,2.33
2023-01-19T09:02:25.877Z,2.20
2023-01-19T09:04:34.652Z,2.15
2023-01-19T09:06:39.633Z,2.28
2023-01-19T09:08:44.498Z,2.47
2023-01-19T09:10:52.482Z,2.60
2023-01-19T09:12:57.324Z,2.42
2023-01-19T09:15:02.648Z,2.30
2023-01-19T09:17:07.746Z,2.47
2023-01-19T09:19:14.217Z,1.95
2023-01-19T09:21:21.811Z,2.75
2023-01-19T09:23:27.207Z,2.55
2023-01-19T09:25:32.895Z,2.53
2023-01-19T09:27:38.494Z,2.17
2023-01-19T09:29:44.102Z,2.03
2023-01-19T09:31:48.969Z,1.75
2023-01-19T09:33:53.755Z,2.28
2023-01-19T09:36:01.457Z,2.20
2023-01-19T09:38:10.691Z,2.38
2023-01-19T09:40:17.534Z,2.28
2023-01-19T09:42:26.221Z,2.40
2023-01-19T09:44:33.145Z,2.05
2023-01-19T09:46:42.270Z,2.10
2023-01-19T09:48:49.449Z,2.40
2023-01-19T09:50:54.379Z,2.03
2023-01-19T09:55:22.141Z,2.28
2023-01-19T09:57:28.101Z,2.13
2023-01-19T09:59:36.726Z,1.88
2023-01-19T10:01:50.481Z,1.73
2023-01-19T10:04:08.300Z,1.42
2023-01-19T10:06:15.112Z,1.67
2023-01-19T10:08:23.245Z,1.65
2023-01-19T10:10:34.050Z,1.73
2023-01-19T10:12:55.722Z,1.40
2023-01-19T10:15:09.614Z,1.48
2023-01-19T10:17:22.538Z,1.30
2023-01-19T10:19:36.853Z,1.30
2023-01-19T10:21:44.172Z,1.33
2023-01-19T10:23:54.641Z,1.25
2023-01-19T10:26:06.281Z,1.52
2023-01-19T10:28:12.154Z,1.30
2023-01-19T10:30:23.478Z,1.30
2023-01-19T10:32:31.291Z,1.50
2023-01-19T10:34:35.923Z,1.50
2023-01-19T10:36:42.297Z,1.35
2023-01-19T10:38:47.405Z,1.38
2023-01-19T10:40:58.295Z,1.75
2023-01-19T10:43:46.182Z,1.23
2023-01-19T10:45:53.202Z,1.77
2023-01-19T10:47:59.214Z,1.40
2023-01-19T10:50:09.712Z,1.30
2023-01-19T10:52:24.147Z,1.30
2023-01-19T10:54:32.337Z,1.30
2023-01-19T10:56:38.732Z,1.40
2023-01-19T10:58:46.196Z,1.30
2023-01-19T11:00:51.138Z,1.42
2023-01-19T11:02:56.092Z,1.52
2023-01-19T11:05:02.510Z,1.70
2023-01-19T11:07:17.574Z,2.45
2023-01-19T11:09:23.925Z,1.20
2023-01-19T11:11:28.905Z,0.90
2023-01-19T11:13:33.995Z,1.70
2023-01-19T11:15:46.226Z,1.10
2023-01-19T11:17:51.062Z,1.60
2023-01-19T11:19:58.337Z,1.40
2023-01-19T11:22:21.778Z,2.17
2023-01-19T11:26:33.129Z,1.42
2023-01-19T11:28:39.749Z,1.42
2023-01-19T11:30:57.208Z,1.77
2023-01-19T11:33:02.774Z,1.92
2023-01-19T11:35:36.155Z,1.90
2023-01-19T11:37:43.062Z,1.30
2023-01-19T11:39:50.135Z,1.20
2023-01-19T11:41:57.895Z,1.30
2023-01-19T11:44:12.247Z,1.63
2023-01-19T11:46:20.159Z,1.75
2023-01-19T11:48:34.999Z,1.70
2023-01-19T11:50:44.820Z,1.75
2023-01-19T11:52:54.737Z,1.65
2023-01-19T11:55:05.358Z,1.67
2023-01-19T11:57:20.275Z,1.45
2023-01-19T11:59:26.167Z,1.77
2023-01-19T12:01:35.397Z,2.67
2023-01-19T12:03:43.531Z,1.80
2023-01-19T12:05:51.340Z,2.13
2023-01-19T12:07:56.079Z,2.00
2023-01-19T12:10:09.632Z,1.85
2023-01-19T12:12:18.202Z,1.50
2023-01-19T12:14:27.295Z,2.22
2023-01-19T12:16:39.652Z,1.40
2023-01-19T12:18:50.536Z,1.70
2023-01-19T12:21:02.932Z,1.67
2023-01-19T12:23:22.215Z,1.60
2023-01-19T12:25:29.503Z,2.03
2023-01-19T12:27:41.314Z,1.65
2023-01-19T12:29:49.195Z,1.40
2023-01-19T12:32:36.948Z,1.75
2023-01-19T12:34:43.628Z,1.55
2023-01-19T12:36:49.748Z,1.80
2023-01-19T12:38:57.063Z,1.65
2023-01-19T12:41:34.223Z,1.38
2023-01-19T12:43:39.258Z,1.55
2023-01-19T12:45:45.219Z,1.55
2023-01-19T12:47:56.991Z,1.70
2023-01-19T12:50:08.480Z,1.63
2023-01-19T12:52:20.092Z,1.55
2023-01-19T12:54:29.644Z,1.95
2023-01-19T12:56:37.514Z,1.70
2023-01-19T12:58:42.295Z,1.80
2023-01-19T13:00:47.933Z,1.70
2023-01-19T13:02:59.197Z,1.70
2023-01-19T13:05:21.548Z,1.40
2023-01-19T13:07:26.317Z,1.33
2023-01-19T13:09:35.579Z,1.95
2023-01-19T13:12:15.329Z,1.50
2023-01-19T13:14:38.656Z,1.10
2023-01-19T13:17:13.684Z,1.85
2023-01-19T13:19:23.981Z,1.58
2023-01-19T13:21:35.159Z,1.60
2023-01-19T13:23:56.360Z,1.50
2023-01-19T13:26:08.837Z,1.88
2023-01-19T13:28:13.814Z,1.73
2023-01-19T13:30:20.976Z,1.73
2023-01-19T13:32:25.922Z,1.70
2023-01-19T13:34:35.844Z,1.77
2023-01-19T13:36:42.301Z,1.80
2023-01-19T13:38:47.224Z,1.50
2023-01-19T13:40:52.434Z,1.77
2023-01-19T13:42:57.333Z,1.75
2023-01-19T13:45:06.418Z,1.95
2023-01-19T13:47:11.579Z,2.25
2023-01-19T13:49:20.686Z,1.77
2023-01-19T13:51:32.983Z,2.05
2023-01-19T13:53:37.649Z,2.57
2023-01-19T13:55:42.515Z,1.83
2023-01-19T13:57:48.695Z,1.60
2023-01-19T14:00:06.645Z,1.80
2023-01-19T14:02:17.017Z,1.70
2023-01-19T14:04:29.188Z,1.85
2023-01-19T14:06:51.654Z,1.33
2023-01-19T14:09:09.768Z,1.90
2023-01-19T14:11:16.927Z,1.90
2023-01-19T14:13:25.164Z,2.00
2023-01-19T14:15:30.184Z,1.70
2023-01-19T14:17:35.303Z,1.98
2023-01-19T14:19:52.922Z,1.42
2023-01-19T14:22:10.775Z,1.80
2023-01-19T14:24:19.996Z,2.45
2023-01-19T14:26:45.293Z,1.73
2023-01-19T14:28:50.230Z,1.55
2023-01-19T14:30:59.718Z,1.48
2023-01-19T14:33:06.823Z,1.63
2023-01-19T14:35:26.736Z,1.63
2023-01-19T14:37:36.261Z,1.70
2023-01-19T14:39:41.172Z,1.60
2023-01-19T14:41:48.302Z,1.40
2023-01-19T14:43:56.112Z,1.70
2023-01-19T14:46:01.051Z,1.60
2023-01-19T14:48:07.999Z,1.42
2023-01-19T14:50:22.068Z,1.33
2023-01-19T14:52:32.926Z,1.27
2023-01-19T14:54:42.370Z,1.25
2023-01-19T14:56:48.034Z,0.90
2023-01-19T14:58:52.898Z,0.98
2023-01-19T15:00:58.537Z,1.30
2023-01-19T15:03:06.457Z,1.75
2023-01-19T15:05:12.169Z,1.35
2023-01-19T15:07:21.024Z,1.45
2023-01-19T15:09:26.001Z,1.50
2023-01-19T15:11:38.913Z,1.40
2023-01-19T15:13:45.019Z,1.50
2023-01-19T15:15:49.960Z,1.60
2023-01-19T15:17:56.286Z,2.00
2023-01-19T15:20:03.443Z,1.98
2023-01-19T15:22:14.924Z,1.90
2023-01-19T15:24:20.010Z,1.67
2023-01-19T15:26:26.657Z,1.80
2023-01-19T15:28:34.500Z,1.83
2023-01-19T15:30:39.462Z,2.38
2023-01-19T15:32:44.370Z,2.10
2023-01-19T15:34:49.045Z,4.57
2023-01-19T15:36:53.940Z,2.40
2023-01-19T15:39:00.885Z,2.72
2023-01-19T15:41:06.414Z,2.25
2023-01-19T15:43:14.994Z,2.45
2023-01-19T15:45:36.762Z,2.60
2023-01-19T15:47:41.992Z,2.63
2023-01-19T15:49:46.769Z,2.33
2023-01-19T15:51:51.607Z,2.72
2023-01-19T15:54:02.073Z,2.70
2023-01-19T15:56:07.487Z,2.17
2023-01-19T15:58:17.479Z,2.30
2023-01-19T16:00:22.874Z,2.67
2023-01-19T16:02:30.913Z,2.60
2023-01-19T16:04:36.852Z,2.78
2023-01-19T16:06:42.167Z,3.00
2023-01-19T16:08:50.061Z,3.17
2023-01-19T16:10:55.414Z,4.55
2023-01-19T16:13:02.432Z,3.80
2023-01-19T16:15:10.018Z,3.65
2023-01-19T16:17:14.967Z,4.10
2023-01-19T16:19:22.703Z,3.75
2023-01-19T16:21:27.769Z,4.25
2023-01-19T16:23:33.320Z,4.07
2023-01-19T16:25:38.157Z,3.50
2023-01-19T16:27:43.498Z,3.58
2023-01-19T16:29:48.395Z,4.07
2023-01-19T16:31:53.241Z,3.63
2023-01-19T16:33:58.237Z,3.63
2023-01-19T16:36:20.723Z,4.30
2023-01-19T16:38:25.776Z,8.23
2023-01-19T16:40:30.731Z,9.45
2023-01-19T16:42:35.990Z,7.03
2023-01-19T16:44:40.976Z,4.65
2023-01-19T16:46:49.422Z,3.72
2023-01-19T16:48:54.860Z,3.85
2023-01-19T16:51:07.934Z,3.28
2023-01-19T16:53:13.546Z,2.40
2023-01-19T16:55:18.532Z,2.72
2023-01-19T16:57:23.610Z,2.88
2023-01-19T16:59:29.998Z,2.70
2023-01-19T17:01:35.261Z,2.40
2023-01-19T17:03:41.186Z,2.85
2023-01-19T17:05:54.928Z,2.35
2023-01-19T17:08:02.634Z,1.90
2023-01-19T17:10:09.233Z,2.30
2023-01-19T17:12:14.705Z,2.00
2023-01-19T17:14:21.343Z,2.00
2023-01-19T17:16:27.760Z,2.03
2023-01-19T17:18:38.043Z,2.08
2023-01-19T17:20:43.359Z,2.15
2023-01-19T17:22:48.066Z,2.92
2023-01-19T17:24:55.641Z,2.70
2023-01-19T17:27:00.889Z,2.60
2023-01-19T17:29:07.769Z,3.10
2023-01-19T17:31:15.631Z,2.70
2023-01-19T17:33:21.992Z,2.92
2023-01-19T17:35:26.954Z,2.15
2023-01-19T17:37:34.980Z,2.83
2023-01-19T17:39:39.909Z,3.63
2023-01-19T17:41:49.485Z,4.43
2023-01-19T17:43:55.563Z,4.40
2023-01-19T17:46:00.818Z,4.82
2023-01-19T17:48:06.695Z,3.67
2023-01-19T17:50:15.412Z,4.63
2023-01-19T17:52:20.456Z,4.82
2023-01-19T17:54:25.395Z,4.07
2023-01-19T17:56:36.847Z,3.30
2023-01-19T17:58:45.063Z,4.15
2023-01-19T18:00:50.069Z,3.13
2023-01-19T18:02:54.930Z,2.55
2023-01-19T18:05:02.721Z,9.25
2023-01-19T18:07:07.825Z,4.80
2023-01-19T18:09:14.061Z,3.85
2023-01-19T18:11:20.738Z,3.03
2023-01-19T18:13:26.146Z,3.20
2023-01-19T18:15:36.514Z,3.55
2023-01-19T18:17:41.613Z,4.60
2023-01-19T18:19:47.180Z,4.90
2023-01-19T18:21:52.098Z,3.63
2023-01-19T18:24:03.743Z,3.60
2023-01-19T18:26:11.362Z,2.80
2023-01-19T18:28:20.289Z,3.75
2023-01-19T18:30:26.989Z,3.45
2023-01-19T18:32:38.891Z,3.65
2023-01-19T18:34:43.772Z,3.15
2023-01-19T18:36:48.609Z,3.60
2023-01-19T18:38:53.879Z,3.50
2023-01-19T18:41:08.317Z,3.38
2023-01-19T18:43:15.667Z,3.55
2023-01-19T18:45:20.658Z,4.72
2023-01-19T18:47:25.956Z,11.40
2023-01-19T18:49:33.737Z,13.38
2023-01-19T18:51:39.691Z,9.85
2023-01-19T18:53:45.193Z,8.73
2023-01-19T18:55:53.853Z,7.57
2023-01-19T18:58:07.416Z,8.77
2023-01-19T19:00:20.516Z,8.77
2023-01-19T19:02:26.067Z,14.27
2023-01-19T19:04:35.005Z,8.73
2023-01-19T19:06:40.129Z,7.75
2023-01-19T19:08:45.077Z,6.78
2023-01-19T19:10:50.305Z,6.50
2023-01-19T19:13:10.409Z,6.85
2023-01-19T19:15:15.344Z,6.55
2023-01-19T19:17:22.896Z,5.88
2023-01-19T19:19:28.039Z,6.35
2023-01-19T19:21:36.086Z,5.85
2023-01-19T19:23:44.424Z,5.28
2023-01-19T19:25:49.290Z,5.72
2023-01-19T19:27:54.965Z,5.55
2023-01-19T19:30:02.907Z,6.18
2023-01-19T19:32:08.481Z,6.03
2023-01-19T19:34:13.579Z,6.45
2023-01-19T19:36:18.615Z,6.18
2023-01-19T19:38:26.146Z,6.47
2023-01-19T19:40:34.644Z,5.85
2023-01-19T19:42:40.398Z,7.93
2023-01-19T19:44:45.441Z,7.85
2023-01-19T19:46:50.260Z,7.45
2023-01-19T19:48:55.988Z,6.78
2023-01-19T19:51:18.172Z,7.10
2023-01-19T19:53:26.738Z,7.68
2023-01-19T19:55:32.544Z,8.05
2023-01-19T19:57:38.871Z,7.35
2023-01-19T19:59:43.773Z,7.95
2023-01-19T20:01:50.173Z,7.60
2023-01-19T20:03:55.079Z,9.18
2023-01-19T20:06:06.077Z,9.75
2023-01-19T20:08:11.505Z,14.93
2023-01-19T20:10:21.122Z,14.50
2023-01-19T20:12:26.203Z,11.90
2023-01-19T20:14:34.411Z,12.43
2023-01-19T20:16:39.948Z,11.00
2023-01-19T20:18:48.654Z,8.98
2023-01-19T20:20:53.490Z,8.27
2023-01-19T20:22:58.533Z,9.07
2023-01-19T20:25:06.578Z,9.45
2023-01-19T20:27:14.877Z,8.18
2023-01-19T20:29:20.453Z,7.18
2023-01-19T20:31:27.884Z,7.60
2023-01-19T20:33:32.861Z,8.32
2023-01-19T20:35:37.667Z,7.43
2023-01-19T20:37:43.840Z,8.45
2023-01-19T20:39:49.042Z,8.68
2023-01-19T20:41:54.035Z,8.10
2023-01-19T20:44:01.766Z,8.00
2023-01-19T20:46:07.675Z,8.93
2023-01-19T20:48:13.222Z,9.60
2023-01-19T20:50:17.932Z,9.57
2023-01-19T20:52:23.408Z,8.85
2023-01-19T20:54:30.765Z,9.57
2023-01-19T20:56:36.446Z,8.98
2023-01-19T20:58:41.860Z,9.07
2023-01-19T21:00:49.453Z,8.35
2023-01-19T21:02:54.506Z,9.98
2023-01-19T21:04:59.654Z,9.68
2023-01-19T21:07:10.239Z,9.35
2023-01-19T21:09:15.230Z,8.88
2023-01-19T21:11:21.361Z,8.82
2023-01-19T21:13:26.800Z,8.40
2023-01-19T21:15:39.107Z,9.27
2023-01-19T21:17:46.482Z,9.32
2023-01-19T21:19:51.391Z,8.18
2023-01-19T21:21:56.624Z,9.75
2023-01-19T21:24:02.610Z,8.13
2023-01-19T21:26:09.008Z,8.23
2023-01-19T21:28:15.329Z,8.98
2023-01-19T21:30:20.974Z,8.63
2023-01-19T21:32:25.923Z,8.88
2023-01-19T21:34:33.742Z,7.25
2023-01-19T21:36:39.530Z,6.10
2023-01-19T21:38:46.461Z,6.22
2023-01-19T21:40:56.807Z,6.95
2023-01-19T21:43:04.341Z,6.88
2023-01-19T21:45:11.254Z,5.80
2023-01-19T21:47:25.645Z,4.50
2023-01-19T21:49:35.009Z,5.32
2023-01-19T21:51:47.772Z,6.07
2023-01-19T21:56:10.829Z,4.95
2023-01-19T21:58:16.395Z,7.10
2023-01-19T22:00:22.049Z,6.65
2023-01-19T22:02:37.990Z,5.97
2023-01-19T22:04:49.302Z,6.22
2023-01-19T22:07:03.521Z,5.60
2023-01-19T22:09:10.868Z,5.70
2023-01-19T22:11:21.598Z,5.35
2023-01-19T22:13:47.320Z,5.22
2023-01-19T22:16:10.937Z,4.95
2023-01-19T22:18:16.561Z,5.55
2023-01-19T22:20:24.087Z,4.85
2023-01-19T22:22:29.278Z,5.55
2023-01-19T22:24:34.226Z,5.40
2023-01-19T22:26:39.613Z,5.70
2023-01-19T22:28:44.679Z,4.38
2023-01-19T22:30:49.558Z,5.03
2023-01-19T22:32:54.517Z,5.57
2023-01-19T22:35:26.923Z,5.07
2023-01-19T22:37:39.350Z,4.57
2023-01-19T22:39:51.916Z,10.75
2023-01-19T22:42:13.636Z,4.60
2023-01-19T22:44:21.360Z,3.97
2023-01-19T22:46:27.550Z,3.78
2023-01-19T22:48:36.312Z,3.90
2023-01-19T22:50:47.597Z,4.38
2023-01-19T22:53:04.299Z,4.60
2023-01-19T22:55:21.708Z,4.07
2023-01-19T22:57:34.965Z,3.55
2023-01-19T23:01:54.293Z,3.65
2023-01-19T23:04:13.007Z,4.70
2023-01-19T23:06:30.596Z,5.03
2023-01-19T23:08:40.640Z,4.63
2023-01-19T23:10:48.054Z,4.75
2023-01-19T23:12:57.978Z,5.45
2023-01-19T23:15:12.764Z,5.55
2023-01-19T23:17:21.320Z,6.03
2023-01-19T23:19:30.136Z,7.00
2023-01-19T23:21:37.010Z,7.40
2023-01-19T23:23:45.009Z,8.63
2023-01-19T23:25:49.664Z,8.77
2023-01-19T23:27:54.409Z,10.23
2023-01-19T23:29:59.603Z,11.10
2023-01-19T23:32:07.636Z,12.40
2023-01-19T23:34:14.881Z,11.85
2023-01-19T23:36:22.120Z,13.00
2023-01-19T23:38:28.557Z,13.80
2023-01-19T23:40:36.489Z,13.40
2023-01-19T23:42:42.068Z,14.90
2023-01-19T23:44:47.640Z,15.95
2023-01-19T23:46:52.341Z,16.05
2023-01-19T23:48:57.923Z,17.63
2023-01-19T23:51:03.054Z,14.95
2023-01-19T23:53:07.753Z,16.88
2023-01-19T23:55:15.027Z,16.52
2023-01-19T23:57:22.686Z,18.58
2023-01-19T23:59:27.637Z,17.83
